LTAS

Zonguldak Airport

Zonguldak, Turkey
TAF LTAS 210740Z 2109/2118 VRB02KT 9999 SCT035 TEMPO 2111/2115 35012KT
Issued Valid From Valid To
Apr-21 @ 07:40 UTC
(2 hours ago)
Apr-21 @ 09:00 UTC
(45 minutes ago)
Apr-21 @ 18:00 UTC
(in 8 hours)
Apr-21 @ 09:00 to Apr-21 @ 18:00
TAF LTAS 210740Z 2109/2118 VRB02KT 9999 SCT035
Wind Visibility Clouds
Variable at 2 knots 10,000+ meters
  • Scattered at 3,500' AGL
Temporary Apr-21 @ 11:00 to Apr-21 @ 15:00
TEMPO 2111/2115 35012KT
Wind
350° at 12 knots
TAF LTAS 210740Z 2109/2118 VRB02KT 9999 SCT035 TEMPO 2111/2115 35012KT
Issued Apr-21 @ 07:40 UTC
(2 hours ago)
Valid From Apr-21 @ 09:00 UTC
(45 minutes ago)
Valid To Apr-21 @ 18:00 UTC
(in 8 hours)
Apr-21 @ 09:00 - Apr-21 @ 18:00
Wind Visibility
Variable at 2 knots 10,000+ meters
Clouds
  • Scattered at 3,500' AGL
Temporary Apr-21 @ 11:00 - Apr-21 @ 15:00
Wind
350° at 12 knots